Time;durP1;ratioP1;P1;durP2;ratioP2;P2;SDS_P1;SDS_P2;PMS_P1;PMS_P2;Temp;Humidity;BMP_temperature;BMP_pressure;BME280_temperature;BME280_humidity;BME280_pressure;Samples;Min_cycle;Max_cycle;Signal;HPM_P1;HPM_P2
2023/11/21 08:02:53;;;;;;;3.42;1.27;;;;;;;22.82;100.00;101274.56;10606396;27;20384;-88
2023/11/21 08:08:18;;;;;;;3.35;2.05;;;;;;;23.61;100.00;101284.03;10495037;28;20056;-86
2023/11/21 08:13:46;;;;;;;4.93;1.35;;;;;;;24.83;97.92;101277.38;10502175;28;20070;-84
2023/11/21 08:24:48;;;;;;;1.52;0.90;;;;;;;26.38;74.55;101252.53;10273467;28;20043;-85
2023/11/21 08:30:16;;;;;;;2.25;1.10;;;;;;;29.76;50.59;101245.84;10438316;28;20405;-87
2023/11/21 08:35:40;;;;;;;4.40;0.90;;;;;;;31.12;42.97;101255.97;10467903;28;20145;-87
2023/11/21 08:41:03;;;;;;;4.47;1.23;;;;;;;30.66;43.01;101244.22;10443360;28;20582;-84
2023/11/21 08:46:26;;;;;;;1.30;0.90;;;;;;;28.93;45.69;101227.72;10444194;28;20528;-84
2023/11/21 08:51:50;;;;;;;3.13;1.48;;;;;;;31.01;41.85;101227.56;10452907;28;20044;-83
2023/11/21 08:57:12;;;;;;;1.67;0.90;;;;;;;31.44;38.87;101223.06;10484986;28;20503;-86
2023/11/21 09:02:35;;;;;;;3.28;1.40;;;;;;;29.18;44.83;101213.69;10415241;28;20073;-84
2023/11/21 09:07:59;;;;;;;11.23;7.72;;;;;;;30.60;41.81;101206.44;10407974;28;20057;-85
2023/11/21 09:13:21;;;;;;;6.55;1.40;;;;;;;31.40;40.86;101202.38;10420416;28;20085;-86
2023/11/21 09:18:45;;;;;;;3.03;1.23;;;;;;;32.20;37.77;101204.41;10403921;28;20048;-84
2023/11/21 09:24:10;;;;;;;2.05;1.10;;;;;;;31.57;39.83;101199.44;10397265;28;20426;-85
2023/11/21 09:29:32;;;;;;;4.55;2.15;;;;;;;28.81;45.66;101186.72;10416609;28;20049;-84
2023/11/21 09:34:57;;;;;;;5.28;2.63;;;;;;;28.39;48.26;101181.66;10432159;28;20587;-84
2023/11/21 09:40:23;;;;;;;5.57;1.00;;;;;;;26.78;54.70;101189.41;10401125;28;20045;-84
2023/11/21 09:45:50;;;;;;;4.63;1.40;;;;;;;26.12;62.04;101172.38;10414651;28;20063;-84
2023/11/21 09:51:12;;;;;;;9.18;4.88;;;;;;;27.06;60.26;101161.94;10449753;28;20154;-86
2023/11/21 09:56:37;;;;;;;4.10;1.92;;;;;;;29.86;45.36;101162.69;10450760;28;20476;-85
2023/11/21 10:01:59;;;;;;;2.42;1.10;;;;;;;29.37;45.74;101166.44;10405705;28;20045;-85
2023/11/21 10:07:22;;;;;;;2.75;1.10;;;;;;;27.89;50.68;101159.75;10453984;28;20052;-85
2023/11/21 10:12:53;;;;;;;30.95;19.30;;;;;;;25.79;68.06;101150.31;10454648;28;20752;-85
2023/11/21 10:18:16;;;;;;;6.20;4.75;;;;;;;26.02;71.43;101143.94;10416488;28;20505;-85
2023/11/21 10:23:39;;;;;;;25.52;15.23;;;;;;;27.54;59.48;101147.91;10411679;28;20401;-84
2023/11/21 10:29:04;;;;;;;54.65;24.60;;;;;;;28.35;57.95;101144.75;10412388;28;20057;-83
2023/11/21 10:34:27;;;;;;;35.45;18.30;;;;;;;28.80;51.27;101128.75;10412441;28;20547;-84
2023/11/21 10:39:50;;;;;;;13.27;9.77;;;;;;;26.61;66.36;101132.34;10431632;28;20470;-84
2023/11/21 10:45:14;;;;;;;9.80;5.40;;;;;;;28.89;50.87;101117.34;10431367;28;20057;-85
2023/11/21 10:50:36;;;;;;;48.72;27.65;;;;;;;28.33;49.67;101114.94;10410516;28;20053;-84
2023/11/21 10:56:06;;;;;;;8.10;4.32;;;;;;;27.75;54.40;101104.34;10411695;28;20489;-84
2023/11/21 11:01:31;;;;;;;32.97;16.30;;;;;;;27.12;59.85;101093.88;10405047;28;20049;-82
2023/11/21 11:06:58;;;;;;;45.70;20.45;;;;;;;26.00;66.00;101106.09;10354723;28;20044;-84
2023/11/21 11:12:30;;;;;;;12.55;3.47;;;;;;;25.24;77.16;101097.53;10439992;28;20088;-83
2023/11/21 11:18:01;;;;;;;10.75;6.85;;;;;;;25.89;77.43;101094.84;10437066;28;20106;-83
2023/11/21 11:23:38;;;;;;;10.10;7.47;;;;;;;24.97;80.40;101081.47;10451559;28;20048;-82
2023/11/21 11:29:09;;;;;;;5.30;2.00;;;;;;;23.76;93.24;101080.44;10434378;28;20057;-88
2023/11/21 11:34:38;;;;;;;13.45;11.88;;;;;;;23.91;98.78;101074.50;10450701;28;20060;-86
2023/11/21 11:40:02;;;;;;;7.82;4.13;;;;;;;24.28;97.02;101075.97;10448817;28;20058;-83
2023/11/21 11:45:33;;;;;;;8.68;4.38;;;;;;;24.31;97.10;101068.63;10422538;28;20053;-84
2023/11/21 11:51:14;;;;;;;15.90;12.27;;;;;;;24.37;95.42;101073.78;10404632;28;20041;-87
2023/11/21 11:56:44;;;;;;;15.75;12.43;;;;;;;24.80;89.83;101072.22;10434254;28;20053;-83
2023/11/21 12:02:07;;;;;;;9.73;7.43;;;;;;;24.51;88.23;101062.50;10428717;28;20057;-84
2023/11/21 12:07:44;;;;;;;9.18;7.60;;;;;;;24.46;86.63;101051.88;10437822;28;20053;-83
2023/11/21 12:13:09;;;;;;;6.18;3.10;;;;;;;24.75;85.08;101058.88;10448030;28;20544;-85
2023/11/21 12:18:32;;;;;;;4.07;1.40;;;;;;;25.04;84.06;101043.38;10425562;28;20041;-82
2023/11/21 12:23:56;;;;;;;2.38;1.10;;;;;;;25.56;80.63;101047.56;10425116;28;20053;-81
2023/11/21 12:29:18;;;;;;;4.18;1.58;;;;;;;25.77;76.39;101041.28;10422662;28;20068;-83
2023/11/21 12:34:41;;;;;;;4.57;1.50;;;;;;;25.64;75.85;101031.91;10447875;28;20045;-82
2023/11/21 12:40:06;;;;;;;15.73;7.93;;;;;;;25.20;77.01;101025.63;10447111;28;20053;-84
2023/11/21 12:45:30;;;;;;;25.13;10.07;;;;;;;24.80;80.07;101032.59;10436138;28;20040;-84
2023/11/21 12:50:53;;;;;;;19.38;8.10;;;;;;;25.01;81.03;101022.75;10455926;28;20405;-85
2023/11/21 12:56:17;;;;;;;5.60;1.40;;;;;;;24.92;83.25;101032.13;10455363;28;20405;-85
2023/11/21 13:01:42;;;;;;;4.15;1.20;;;;;;;24.62;82.64;101030.56;10441087;28;20493;-84
2023/11/21 13:07:12;;;;;;;3.63;1.15;;;;;;;24.18;89.67;101040.28;10442136;28;20061;-86
2023/11/21 13:12:39;;;;;;;4.72;1.50;;;;;;;24.19;93.95;101040.28;10455356;28;20052;-83
2023/11/21 13:18:02;;;;;;;4.47;1.65;;;;;;;24.21;91.63;101035.72;10455665;28;20041;-82
2023/11/21 13:23:24;;;;;;;2.83;1.40;;;;;;;24.14;90.20;101035.94;10455145;28;20084;-84
2023/11/21 13:28:48;;;;;;;3.42;1.17;;;;;;;23.89;94.11;101032.38;10454613;28;20134;-85
2023/11/21 13:34:14;;;;;;;3.65;1.25;;;;;;;23.75;96.77;101044.50;10453855;28;20061;-84
2023/11/21 13:39:38;;;;;;;8.27;2.65;;;;;;;23.39;98.95;101043.88;10453624;28;20488;-84
2023/11/21 13:45:02;;;;;;;4.70;1.25;;;;;;;23.10;100.00;101051.13;10454033;28;20080;-82
2023/11/21 13:50:28;;;;;;;2.10;1.52;;;;;;;22.89;100.00;101061.66;10452952;28;20045;-83
2023/11/21 13:55:55;;;;;;;4.17;1.50;;;;;;;22.88;100.00;101051.78;10453348;28;20056;-83
2023/11/21 14:01:44;;;;;;;2.97;1.38;;;;;;;22.92;100.00;101047.19;10438643;28;20064;-82
2023/11/21 14:07:25;;;;;;;6.30;2.30;;;;;;;22.69;100.00;101037.09;10416734;28;20036;-84
2023/11/21 14:12:48;;;;;;;4.47;1.55;;;;;;;22.74;100.00;101043.25;10411888;28;20041;-83
2023/11/21 14:18:16;;;;;;;3.40;1.23;;;;;;;22.87;100.00;101051.84;10455581;28;20048;-84
2023/11/21 14:23:39;;;;;;;4.93;1.60;;;;;;;22.90;100.00;101047.25;10397097;28;20053;-83
2023/11/21 14:29:02;;;;;;;1.92;1.23;;;;;;;22.81;100.00;101050.22;10453069;28;20052;-85
2023/11/21 14:34:26;;;;;;;5.55;1.30;;;;;;;22.73;100.00;101059.44;10453479;28;20559;-86
2023/11/21 14:39:49;;;;;;;4.68;1.52;;;;;;;22.55;100.00;101045.56;10452475;28;20083;-85
2023/11/21 14:45:12;;;;;;;5.30;1.25;;;;;;;22.42;100.00;101059.41;10452399;28;20059;-84
2023/11/21 14:50:51;;;;;;;7.22;1.98;;;;;;;22.16;100.00;101061.03;10438924;28;20444;-84
2023/11/21 14:56:22;;;;;;;4.40;1.60;;;;;;;21.88;100.00;101060.84;10452624;28;20048;-85
2023/11/21 15:01:53;;;;;;;3.47;1.40;;;;;;;21.72;100.00;101053.22;10451577;28;20126;-85
2023/11/21 15:07:20;;;;;;;5.90;1.58;;;;;;;21.49;100.00;101045.72;10437761;28;20052;-84
2023/11/21 15:12:46;;;;;;;4.82;1.25;;;;;;;21.31;100.00;101057.81;10451967;28;20544;-84
2023/11/21 15:18:12;;;;;;;7.78;1.92;;;;;;;21.13;100.00;101052.84;10451983;28;20069;-84
2023/11/21 15:23:36;;;;;;;3.35;2.03;;;;;;;21.04;100.00;101069.16;10436799;28;20041;-83
2023/11/21 15:29:01;;;;;;;4.63;1.77;;;;;;;20.91;100.00;101063.19;10462073;28;20152;-82
2023/11/21 15:34:26;;;;;;;4.55;1.60;;;;;;;20.79;100.00;101067.94;10426708;28;20044;-82
2023/11/21 15:39:50;;;;;;;4.88;1.60;;;;;;;20.69;100.00;101068.13;10418646;28;20045;-81
2023/11/21 15:45:12;;;;;;;3.65;2.00;;;;;;;20.75;100.00;101066.22;10430842;28;20057;-82
2023/11/21 15:50:34;;;;;;;2.95;1.80;;;;;;;20.67;100.00;101063.72;10447601;28;20055;-86
2023/11/21 15:56:04;;;;;;;4.88;2.10;;;;;;;20.66;100.00;101073.56;10431476;28;20475;-83
2023/11/21 16:01:30;;;;;;;5.57;2.25;;;;;;;20.63;100.00;101065.56;10419844;28;20465;-84
2023/11/21 16:06:53;;;;;;;6.90;3.42;;;;;;;20.65;100.00;101085.22;10449235;28;20052;-79
2023/11/21 16:12:16;;;;;;;5.60;2.55;;;;;;;20.69;100.00;101078.84;10445196;28;20095;-80
2023/11/21 16:17:41;;;;;;;4.68;2.28;;;;;;;20.79;100.00;101079.56;10447230;28;20067;-80
2023/11/21 16:23:04;;;;;;;3.45;1.80;;;;;;;20.71;100.00;101086.00;10439239;28;20076;-81
2023/11/21 16:28:30;;;;;;;4.38;1.98;;;;;;;20.76;100.00;101092.13;10448499;28;20440;-81
2023/11/21 16:33:52;;;;;;;6.78;2.13;;;;;;;20.73;100.00;101092.22;10442462;28;20045;-81
2023/11/21 16:39:18;;;;;;;4.70;2.20;;;;;;;20.85;100.00;101102.69;10453625;28;20148;-81
2023/11/21 16:44:42;;;;;;;4.63;1.55;;;;;;;20.82;100.00;101100.06;10439636;28;20056;-81
2023/11/21 16:50:05;;;;;;;4.70;1.75;;;;;;;20.86;100.00;101099.09;10466145;28;20521;-82
2023/11/21 16:55:28;;;;;;;6.90;2.30;;;;;;;20.97;100.00;101094.38;10452849;28;20044;-81
2023/11/21 17:00:52;;;;;;;4.65;2.20;;;;;;;20.91;100.00;101102.56;10449155;28;20075;-81
2023/11/21 17:06:15;;;;;;;10.20;2.50;;;;;;;20.87;100.00;101100.88;10442202;28;20045;-82
2023/11/21 17:11:37;;;;;;;4.80;2.13;;;;;;;20.72;100.00;101107.44;10454516;28;20049;-83
2023/11/21 17:17:01;;;;;;;5.65;2.65;;;;;;;20.70;100.00;101109.25;10453238;28;20049;-81
2023/11/21 17:22:24;;;;;;;3.67;2.20;;;;;;;20.65;100.00;101103.09;10454289;28;20135;-84
2023/11/21 17:27:46;;;;;;;7.03;2.90;;;;;;;20.58;100.00;101112.19;10431345;28;20473;-79
2023/11/21 17:33:10;;;;;;;5.35;1.98;;;;;;;20.34;100.00;101108.19;10453326;28;20126;-80
2023/11/21 17:38:33;;;;;;;3.65;1.90;;;;;;;20.26;100.00;101116.34;10448115;28;20052;-79
2023/11/21 17:43:55;;;;;;;6.90;1.92;;;;;;;20.17;100.00;101118.28;10446193;28;20041;-81
2023/11/21 17:49:19;;;;;;;10.20;2.72;;;;;;;20.21;100.00;101115.56;10453459;28;20061;-82
2023/11/21 17:54:41;;;;;;;7.57;2.20;;;;;;;20.00;100.00;101113.25;10439884;28;20033;-83
2023/11/21 18:00:06;;;;;;;4.90;2.50;;;;;;;19.98;100.00;101116.84;10450730;28;20056;-80
2023/11/21 18:05:33;;;;;;;6.60;2.47;;;;;;;20.04;100.00;101120.31;10464938;28;20045;-84
2023/11/21 18:10:58;;;;;;;5.80;1.85;;;;;;;19.90;100.00;101117.88;10452023;28;20095;-86
2023/11/21 18:16:21;;;;;;;6.70;2.00;;;;;;;19.85;100.00;101118.84;10451894;28;20493;-84
2023/11/21 18:21:45;;;;;;;4.30;2.40;;;;;;;20.00;100.00;101117.72;10454314;28;20083;-84
2023/11/21 18:27:07;;;;;;;7.25;2.00;;;;;;;20.14;100.00;101127.28;10454676;28;20045;-84
2023/11/21 18:32:30;;;;;;;5.60;2.38;;;;;;;20.33;100.00;101116.25;10452040;28;20041;-81
2023/11/21 18:37:54;;;;;;;5.78;2.65;;;;;;;20.27;100.00;101123.47;10455061;28;20041;-84
2023/11/21 18:43:16;;;;;;;8.98;3.20;;;;;;;20.07;100.00;101114.91;10454510;28;20051;-86
2023/11/21 18:48:39;;;;;;;6.65;3.40;;;;;;;20.00;100.00;101120.41;10454964;28;20041;-88
2023/11/21 18:54:04;;;;;;;8.35;2.40;;;;;;;19.87;100.00;101117.94;10455148;28;20136;-86
2023/11/21 18:59:27;;;;;;;11.27;4.28;;;;;;;19.47;100.00;101103.41;10454871;28;20488;-88
2023/11/21 19:04:51;;;;;;;12.90;3.42;;;;;;;19.13;100.00;101105.66;10452483;28;20052;-87
2023/11/21 19:10:15;;;;;;;6.70;3.00;;;;;;;18.98;100.00;101108.53;10440003;28;20056;-82
2023/11/21 19:15:38;;;;;;;8.15;2.95;;;;;;;19.03;100.00;101112.06;10425274;28;20087;-85
2023/11/21 19:21:03;;;;;;;5.38;2.67;;;;;;;18.94;100.00;101109.50;10439518;28;20094;-85
2023/11/21 19:26:27;;;;;;;9.68;3.47;;;;;;;18.80;100.00;101120.38;10456653;28;20389;-86
2023/11/21 19:31:49;;;;;;;7.97;3.30;;;;;;;18.66;100.00;101111.63;10453669;28;20144;-83
2023/11/21 19:37:12;;;;;;;9.10;3.55;;;;;;;18.70;100.00;101124.06;10440739;28;20049;-87
2023/11/21 19:42:38;;;;;;;6.68;2.92;;;;;;;18.66;100.00;101123.19;10439017;28;20049;-86
2023/11/21 19:48:02;;;;;;;18.43;7.03;;;;;;;18.57;100.00;101119.78;10451902;28;20053;-83
2023/11/21 19:53:26;;;;;;;9.90;3.10;;;;;;;18.50;100.00;101126.06;10452313;28;20493;-83
2023/11/21 19:58:51;;;;;;;5.15;2.55;;;;;;;18.55;100.00;101127.81;10450634;28;20053;-85
2023/11/21 20:04:13;;;;;;;15.60;6.55;;;;;;;18.57;100.00;101126.00;10450892;28;20052;-83
2023/11/21 20:09:37;;;;;;;9.57;5.47;;;;;;;18.28;100.00;101126.28;10441671;28;20057;-84
2023/11/21 20:15:01;;;;;;;10.07;3.53;;;;;;;18.18;100.00;101123.72;10446829;28;20063;-83
2023/11/21 20:20:23;;;;;;;16.88;6.25;;;;;;;18.10;100.00;101128.25;10449003;28;20057;-83
2023/11/21 20:25:46;;;;;;;13.15;4.47;;;;;;;18.04;100.00;101125.63;10444442;28;20114;-84
2023/11/21 20:31:10;;;;;;;17.92;8.57;;;;;;;17.76;100.00;101127.63;10449134;28;20452;-83
2023/11/21 20:36:32;;;;;;;7.75;3.72;;;;;;;17.71;100.00;101133.03;10449670;28;20045;-83
2023/11/21 20:41:54;;;;;;;24.50;10.50;;;;;;;17.63;100.00;101133.97;10434890;28;20452;-83
2023/11/21 20:47:18;;;;;;;11.75;6.20;;;;;;;17.58;100.00;101138.44;10446522;28;20049;-84
2023/11/21 20:52:41;;;;;;;9.77;5.20;;;;;;;17.63;100.00;101125.97;10461662;28;20114;-80
2023/11/21 20:58:03;;;;;;;21.08;8.82;;;;;;;17.73;100.00;101136.56;10445986;28;20051;-83
2023/11/21 21:03:27;;;;;;;8.35;3.75;;;;;;;17.84;100.00;101128.47;10446111;28;20103;-83
2023/11/21 21:08:50;;;;;;;9.13;4.32;;;;;;;17.94;100.00;101127.47;10460531;28;20060;-82
2023/11/21 21:14:12;;;;;;;6.78;3.50;;;;;;;18.09;100.00;101126.47;10461307;28;20497;-82
2023/11/21 21:19:36;;;;;;;10.32;3.28;;;;;;;18.31;100.00;101128.91;10440913;28;20044;-83
2023/11/21 21:24:58;;;;;;;5.00;3.20;;;;;;;18.31;100.00;101134.25;10457273;28;20075;-83
2023/11/21 21:30:21;;;;;;;7.18;2.80;;;;;;;18.37;100.00;101133.31;10414977;28;20061;-83
2023/11/21 21:35:46;;;;;;;4.88;3.00;;;;;;;18.65;100.00;101133.91;10400434;28;20091;-82
2023/11/21 21:41:10;;;;;;;6.18;2.40;;;;;;;18.85;100.00;101142.59;10452330;28;20145;-83
2023/11/21 21:46:33;;;;;;;8.63;4.18;;;;;;;18.80;100.00;101131.06;10452914;28;20053;-82
2023/11/21 21:51:56;;;;;;;10.52;4.45;;;;;;;18.52;100.00;101130.47;10453428;28;20056;-83
2023/11/21 21:57:19;;;;;;;11.20;5.10;;;;;;;18.47;100.00;101129.63;10439652;28;20072;-83
2023/11/21 22:02:42;;;;;;;6.40;4.20;;;;;;;18.37;100.00;101127.97;10453297;28;20160;-83
2023/11/21 22:08:07;;;;;;;10.98;4.30;;;;;;;18.56;100.00;101126.00;10453502;28;20052;-82
2023/11/21 22:13:29;;;;;;;7.78;4.10;;;;;;;18.89;100.00;101128.28;10452683;28;20061;-82
2023/11/21 22:18:51;;;;;;;5.90;3.10;;;;;;;18.90;100.00;101132.75;10439705;28;20074;-85
2023/11/21 22:24:15;;;;;;;6.13;3.00;;;;;;;19.10;100.00;101122.63;10453028;28;20107;-85
2023/11/21 22:29:38;;;;;;;5.05;2.13;;;;;;;19.25;100.00;101109.94;10453209;28;20044;-83
2023/11/21 22:35:00;;;;;;;8.13;2.60;;;;;;;19.20;100.00;101104.66;10453044;28;20099;-83
2023/11/21 22:40:24;;;;;;;6.38;2.38;;;;;;;19.47;100.00;101104.31;10454031;28;20057;-83
2023/11/21 22:45:46;;;;;;;5.45;2.15;;;;;;;19.55;100.00;101109.53;10451392;28;20489;-84
2023/11/21 22:51:09;;;;;;;7.38;2.90;;;;;;;19.45;100.00;101099.81;10445177;28;20552;-83
2023/11/21 22:56:33;;;;;;;8.82;2.70;;;;;;;19.44;100.00;101090.03;10452398;28;20056;-82
2023/11/21 23:01:56;;;;;;;5.47;1.98;;;;;;;19.59;100.00;101089.81;10451033;28;20076;-83
2023/11/21 23:07:18;;;;;;;3.90;1.95;;;;;;;19.72;100.00;101095.88;10451828;28;20132;-82
2023/11/21 23:12:42;;;;;;;10.27;2.38;;;;;;;19.73;100.00;101100.31;10451380;28;20041;-82
2023/11/21 23:18:08;;;;;;;8.60;2.28;;;;;;;19.72;100.00;101095.88;10451097;28;20095;-82
2023/11/21 23:23:30;;;;;;;9.65;3.15;;;;;;;19.71;100.00;101088.72;10450566;28;20051;-82
2023/11/21 23:28:54;;;;;;;5.07;2.20;;;;;;;19.69;100.00;101091.41;10449843;28;20049;-82
2023/11/21 23:34:17;;;;;;;6.03;2.35;;;;;;;19.82;100.00;101087.63;10450696;28;20050;-82
2023/11/21 23:39:39;;;;;;;8.15;2.70;;;;;;;19.73;100.00;101081.56;10455406;28;20440;-83
2023/11/21 23:45:04;;;;;;;6.63;2.22;;;;;;;19.66;100.00;101085.25;10448303;28;20132;-81
2023/11/21 23:50:26;;;;;;;8.73;3.13;;;;;;;19.73;100.00;101095.84;10435734;28;20041;-83
2023/11/21 23:55:50;;;;;;;9.48;2.67;;;;;;;19.58;100.00;101090.72;10449130;28;20095;-82
